sensor_id;sensor_type;location;lat;lon;timestamp;P1;durP1;ratioP1;P2;durP2;ratioP2
44774;SDS011;31340;51.402;0.016;2022-07-21T00:01:48;10.68;;;4.80;;
44774;SDS011;31340;51.402;0.016;2022-07-21T00:04:17;9.65;;;4.40;;
44774;SDS011;31340;51.402;0.016;2022-07-21T00:06:46;9.00;;;4.78;;
44774;SDS011;31340;51.402;0.016;2022-07-21T00:09:14;10.73;;;4.63;;
44774;SDS011;31340;51.402;0.016;2022-07-21T00:11:42;14.23;;;4.60;;
44774;SDS011;31340;51.402;0.016;2022-07-21T00:14:11;7.47;;;4.50;;
44774;SDS011;31340;51.402;0.016;2022-07-21T00:16:39;11.20;;;5.13;;
44774;SDS011;31340;51.402;0.016;2022-07-21T00:19:08;9.60;;;5.18;;
44774;SDS011;31340;51.402;0.016;2022-07-21T00:21:37;10.43;;;4.93;;
44774;SDS011;31340;51.402;0.016;2022-07-21T00:24:05;10.18;;;4.50;;
44774;SDS011;31340;51.402;0.016;2022-07-21T00:26:33;10.00;;;4.88;;
44774;SDS011;31340;51.402;0.016;2022-07-21T00:29:00;11.63;;;4.70;;
44774;SDS011;31340;51.402;0.016;2022-07-21T00:31:28;6.50;;;4.30;;
44774;SDS011;31340;51.402;0.016;2022-07-21T00:33:56;7.68;;;4.45;;
44774;SDS011;31340;51.402;0.016;2022-07-21T00:36:33;8.93;;;5.18;;
44774;SDS011;31340;51.402;0.016;2022-07-21T00:39:02;9.30;;;5.47;;
44774;SDS011;31340;51.402;0.016;2022-07-21T00:41:30;9.10;;;4.47;;
44774;SDS011;31340;51.402;0.016;2022-07-21T00:43:57;9.02;;;4.45;;
44774;SDS011;31340;51.402;0.016;2022-07-21T00:46:25;11.10;;;5.43;;
44774;SDS011;31340;51.402;0.016;2022-07-21T00:48:55;10.75;;;4.65;;
44774;SDS011;31340;51.402;0.016;2022-07-21T00:51:23;10.13;;;4.82;;
44774;SDS011;31340;51.402;0.016;2022-07-21T00:53:51;9.00;;;4.15;;
44774;SDS011;31340;51.402;0.016;2022-07-21T00:56:20;10.18;;;5.10;;
44774;SDS011;31340;51.402;0.016;2022-07-21T00:58:48;8.75;;;5.25;;
44774;SDS011;31340;51.402;0.016;2022-07-21T01:01:19;10.27;;;4.90;;
44774;SDS011;31340;51.402;0.016;2022-07-21T01:03:47;8.60;;;5.30;;
44774;SDS011;31340;51.402;0.016;2022-07-21T01:06:14;8.40;;;4.85;;
44774;SDS011;31340;51.402;0.016;2022-07-21T01:08:42;6.55;;;4.65;;
44774;SDS011;31340;51.402;0.016;2022-07-21T01:11:10;10.02;;;4.55;;
44774;SDS011;31340;51.402;0.016;2022-07-21T01:13:39;12.00;;;5.30;;
44774;SDS011;31340;51.402;0.016;2022-07-21T01:18:36;13.23;;;5.25;;
44774;SDS011;31340;51.402;0.016;2022-07-21T01:23:44;12.32;;;4.60;;
44774;SDS011;31340;51.402;0.016;2022-07-21T01:26:12;9.30;;;4.60;;
44774;SDS011;31340;51.402;0.016;2022-07-21T01:28:39;10.73;;;4.88;;
44774;SDS011;31340;51.402;0.016;2022-07-21T01:31:07;10.35;;;4.47;;
44774;SDS011;31340;51.402;0.016;2022-07-21T01:33:34;10.18;;;4.43;;
44774;SDS011;31340;51.402;0.016;2022-07-21T01:36:02;11.93;;;4.50;;
44774;SDS011;31340;51.402;0.016;2022-07-21T01:38:30;10.63;;;5.20;;
44774;SDS011;31340;51.402;0.016;2022-07-21T01:41:17;12.55;;;4.90;;
44774;SDS011;31340;51.402;0.016;2022-07-21T01:43:56;9.18;;;4.35;;
44774;SDS011;31340;51.402;0.016;2022-07-21T01:46:28;10.40;;;4.68;;
44774;SDS011;31340;51.402;0.016;2022-07-21T01:48:56;11.43;;;4.88;;
44774;SDS011;31340;51.402;0.016;2022-07-21T01:51:24;9.35;;;4.32;;
44774;SDS011;31340;51.402;0.016;2022-07-21T01:53:52;11.65;;;4.28;;
44774;SDS011;31340;51.402;0.016;2022-07-21T01:56:21;13.68;;;4.65;;
44774;SDS011;31340;51.402;0.016;2022-07-21T01:58:51;11.37;;;4.50;;
44774;SDS011;31340;51.402;0.016;2022-07-21T02:01:22;9.07;;;4.10;;
44774;SDS011;31340;51.402;0.016;2022-07-21T02:03:53;12.45;;;4.00;;
44774;SDS011;31340;51.402;0.016;2022-07-21T02:06:22;6.88;;;4.13;;
44774;SDS011;31340;51.402;0.016;2022-07-21T02:08:50;9.65;;;4.55;;
44774;SDS011;31340;51.402;0.016;2022-07-21T02:11:18;10.90;;;4.60;;
44774;SDS011;31340;51.402;0.016;2022-07-21T02:13:47;9.55;;;4.43;;
44774;SDS011;31340;51.402;0.016;2022-07-21T02:16:15;11.07;;;4.22;;
44774;SDS011;31340;51.402;0.016;2022-07-21T02:18:43;10.80;;;4.38;;
44774;SDS011;31340;51.402;0.016;2022-07-21T02:21:11;8.68;;;4.55;;
44774;SDS011;31340;51.402;0.016;2022-07-21T02:23:38;9.20;;;4.03;;
44774;SDS011;31340;51.402;0.016;2022-07-21T02:26:06;9.02;;;3.85;;
44774;SDS011;31340;51.402;0.016;2022-07-21T02:28:34;10.20;;;4.57;;
44774;SDS011;31340;51.402;0.016;2022-07-21T02:31:01;9.75;;;4.22;;
44774;SDS011;31340;51.402;0.016;2022-07-21T02:33:29;8.30;;;4.15;;
44774;SDS011;31340;51.402;0.016;2022-07-21T02:35:57;9.07;;;3.47;;
44774;SDS011;31340;51.402;0.016;2022-07-21T02:38:25;9.63;;;3.90;;
44774;SDS011;31340;51.402;0.016;2022-07-21T02:40:52;9.57;;;4.55;;
44774;SDS011;31340;51.402;0.016;2022-07-21T02:43:23;8.60;;;3.92;;
44774;SDS011;31340;51.402;0.016;2022-07-21T02:45:51;8.90;;;3.53;;
44774;SDS011;31340;51.402;0.016;2022-07-21T02:48:18;10.30;;;3.95;;
44774;SDS011;31340;51.402;0.016;2022-07-21T02:50:46;11.07;;;4.15;;
44774;SDS011;31340;51.402;0.016;2022-07-21T02:53:15;14.93;;;4.72;;
44774;SDS011;31340;51.402;0.016;2022-07-21T02:55:46;9.70;;;3.95;;
44774;SDS011;31340;51.402;0.016;2022-07-21T02:58:17;10.77;;;4.05;;
44774;SDS011;31340;51.402;0.016;2022-07-21T03:00:45;10.15;;;4.32;;
44774;SDS011;31340;51.402;0.016;2022-07-21T03:03:18;9.57;;;3.90;;
44774;SDS011;31340;51.402;0.016;2022-07-21T03:05:47;8.05;;;3.38;;
44774;SDS011;31340;51.402;0.016;2022-07-21T03:08:15;10.68;;;4.10;;
44774;SDS011;31340;51.402;0.016;2022-07-21T03:10:43;10.65;;;3.72;;
44774;SDS011;31340;51.402;0.016;2022-07-21T03:13:11;8.48;;;3.97;;
44774;SDS011;31340;51.402;0.016;2022-07-21T03:15:40;6.32;;;4.13;;
44774;SDS011;31340;51.402;0.016;2022-07-21T03:18:08;10.45;;;3.80;;
44774;SDS011;31340;51.402;0.016;2022-07-21T03:20:37;10.35;;;4.72;;
44774;SDS011;31340;51.402;0.016;2022-07-21T03:23:06;13.23;;;4.65;;
44774;SDS011;31340;51.402;0.016;2022-07-21T03:25:34;10.65;;;4.60;;
44774;SDS011;31340;51.402;0.016;2022-07-21T03:28:02;6.97;;;3.80;;
44774;SDS011;31340;51.402;0.016;2022-07-21T03:30:30;10.93;;;4.35;;
44774;SDS011;31340;51.402;0.016;2022-07-21T03:33:01;10.82;;;4.32;;
44774;SDS011;31340;51.402;0.016;2022-07-21T03:35:29;9.02;;;4.35;;
44774;SDS011;31340;51.402;0.016;2022-07-21T03:37:58;12.88;;;4.40;;
44774;SDS011;31340;51.402;0.016;2022-07-21T03:40:28;9.80;;;4.07;;
44774;SDS011;31340;51.402;0.016;2022-07-21T03:42:58;10.45;;;4.28;;
44774;SDS011;31340;51.402;0.016;2022-07-21T03:45:27;8.38;;;3.80;;
44774;SDS011;31340;51.402;0.016;2022-07-21T03:47:57;10.93;;;4.35;;
44774;SDS011;31340;51.402;0.016;2022-07-21T03:50:27;7.72;;;4.00;;
44774;SDS011;31340;51.402;0.016;2022-07-21T03:52:56;9.38;;;3.90;;
44774;SDS011;31340;51.402;0.016;2022-07-21T03:55:24;10.50;;;3.90;;
44774;SDS011;31340;51.402;0.016;2022-07-21T03:57:54;14.07;;;3.92;;
44774;SDS011;31340;51.402;0.016;2022-07-21T04:00:30;8.68;;;4.28;;
44774;SDS011;31340;51.402;0.016;2022-07-21T04:03:06;9.13;;;4.43;;
44774;SDS011;31340;51.402;0.016;2022-07-21T04:05:36;11.20;;;4.28;;
44774;SDS011;31340;51.402;0.016;2022-07-21T04:08:05;13.35;;;4.63;;
44774;SDS011;31340;51.402;0.016;2022-07-21T04:10:35;12.52;;;5.35;;
44774;SDS011;31340;51.402;0.016;2022-07-21T04:13:05;13.68;;;4.90;;
44774;SDS011;31340;51.402;0.016;2022-07-21T04:15:34;12.32;;;4.30;;
44774;SDS011;31340;51.402;0.016;2022-07-21T04:18:03;8.30;;;4.57;;
44774;SDS011;31340;51.402;0.016;2022-07-21T04:20:31;10.23;;;5.35;;
44774;SDS011;31340;51.402;0.016;2022-07-21T04:22:59;12.23;;;4.28;;
44774;SDS011;31340;51.402;0.016;2022-07-21T04:25:27;11.30;;;5.10;;
44774;SDS011;31340;51.402;0.016;2022-07-21T04:27:56;12.05;;;4.53;;
44774;SDS011;31340;51.402;0.016;2022-07-21T04:30:27;9.52;;;4.22;;
44774;SDS011;31340;51.402;0.016;2022-07-21T04:32:55;10.88;;;4.28;;
44774;SDS011;31340;51.402;0.016;2022-07-21T04:35:23;8.80;;;4.43;;
44774;SDS011;31340;51.402;0.016;2022-07-21T04:37:50;9.07;;;3.60;;
44774;SDS011;31340;51.402;0.016;2022-07-21T04:40:18;9.35;;;3.97;;
44774;SDS011;31340;51.402;0.016;2022-07-21T04:42:45;8.20;;;3.55;;
44774;SDS011;31340;51.402;0.016;2022-07-21T04:45:14;10.88;;;3.42;;
44774;SDS011;31340;51.402;0.016;2022-07-21T04:47:43;5.45;;;3.10;;
44774;SDS011;31340;51.402;0.016;2022-07-21T04:50:12;9.48;;;3.58;;
44774;SDS011;31340;51.402;0.016;2022-07-21T04:52:40;7.10;;;3.13;;
44774;SDS011;31340;51.402;0.016;2022-07-21T04:55:07;9.45;;;3.35;;
44774;SDS011;31340;51.402;0.016;2022-07-21T04:57:37;6.20;;;3.03;;
44774;SDS011;31340;51.402;0.016;2022-07-21T05:00:06;10.27;;;2.85;;
44774;SDS011;31340;51.402;0.016;2022-07-21T05:02:36;10.80;;;3.50;;
44774;SDS011;31340;51.402;0.016;2022-07-21T05:05:04;10.50;;;3.22;;
44774;SDS011;31340;51.402;0.016;2022-07-21T05:07:33;12.15;;;3.22;;
44774;SDS011;31340;51.402;0.016;2022-07-21T05:10:07;11.98;;;3.20;;
44774;SDS011;31340;51.402;0.016;2022-07-21T05:12:37;12.25;;;3.85;;
44774;SDS011;31340;51.402;0.016;2022-07-21T05:15:05;9.90;;;3.00;;
44774;SDS011;31340;51.402;0.016;2022-07-21T05:17:34;8.75;;;2.63;;
44774;SDS011;31340;51.402;0.016;2022-07-21T05:20:02;11.10;;;3.30;;
44774;SDS011;31340;51.402;0.016;2022-07-21T05:22:31;6.32;;;3.13;;
44774;SDS011;31340;51.402;0.016;2022-07-21T05:24:58;11.40;;;3.30;;
44774;SDS011;31340;51.402;0.016;2022-07-21T05:27:26;7.85;;;3.47;;
44774;SDS011;31340;51.402;0.016;2022-07-21T05:29:53;11.00;;;3.10;;
44774;SDS011;31340;51.402;0.016;2022-07-21T05:32:21;11.02;;;3.38;;
44774;SDS011;31340;51.402;0.016;2022-07-21T05:34:49;9.00;;;3.40;;
44774;SDS011;31340;51.402;0.016;2022-07-21T05:37:16;7.82;;;3.00;;
44774;SDS011;31340;51.402;0.016;2022-07-21T05:39:44;9.45;;;3.30;;
44774;SDS011;31340;51.402;0.016;2022-07-21T05:42:11;8.85;;;3.10;;
44774;SDS011;31340;51.402;0.016;2022-07-21T05:44:39;8.25;;;3.10;;
44774;SDS011;31340;51.402;0.016;2022-07-21T05:47:06;12.27;;;3.05;;
44774;SDS011;31340;51.402;0.016;2022-07-21T05:49:34;8.90;;;3.20;;
44774;SDS011;31340;51.402;0.016;2022-07-21T05:52:01;12.13;;;3.28;;
44774;SDS011;31340;51.402;0.016;2022-07-21T05:54:29;10.73;;;3.80;;
44774;SDS011;31340;51.402;0.016;2022-07-21T05:56:56;14.98;;;3.42;;
44774;SDS011;31340;51.402;0.016;2022-07-21T05:59:25;8.00;;;3.33;;
44774;SDS011;31340;51.402;0.016;2022-07-21T06:01:52;11.75;;;2.97;;
44774;SDS011;31340;51.402;0.016;2022-07-21T06:04:20;9.07;;;2.92;;
44774;SDS011;31340;51.402;0.016;2022-07-21T06:06:48;7.22;;;3.30;;
44774;SDS011;31340;51.402;0.016;2022-07-21T06:09:15;10.70;;;2.70;;
44774;SDS011;31340;51.402;0.016;2022-07-21T06:11:43;7.32;;;2.75;;
44774;SDS011;31340;51.402;0.016;2022-07-21T06:14:10;15.10;;;2.92;;
44774;SDS011;31340;51.402;0.016;2022-07-21T06:16:38;9.85;;;2.70;;
44774;SDS011;31340;51.402;0.016;2022-07-21T06:19:06;11.05;;;3.20;;
44774;SDS011;31340;51.402;0.016;2022-07-21T06:21:33;9.80;;;2.92;;
44774;SDS011;31340;51.402;0.016;2022-07-21T06:24:09;9.00;;;2.83;;
44774;SDS011;31340;51.402;0.016;2022-07-21T06:26:37;10.80;;;3.33;;
44774;SDS011;31340;51.402;0.016;2022-07-21T06:29:07;9.40;;;2.63;;
44774;SDS011;31340;51.402;0.016;2022-07-21T06:31:35;11.93;;;3.10;;
44774;SDS011;31340;51.402;0.016;2022-07-21T06:34:02;7.78;;;3.25;;
44774;SDS011;31340;51.402;0.016;2022-07-21T06:36:30;6.85;;;2.65;;
44774;SDS011;31340;51.402;0.016;2022-07-21T06:38:58;11.82;;;3.72;;
44774;SDS011;31340;51.402;0.016;2022-07-21T06:41:25;10.00;;;3.65;;
44774;SDS011;31340;51.402;0.016;2022-07-21T06:43:53;8.68;;;3.28;;
44774;SDS011;31340;51.402;0.016;2022-07-21T06:46:21;12.40;;;3.20;;
44774;SDS011;31340;51.402;0.016;2022-07-21T06:48:49;9.07;;;2.97;;
44774;SDS011;31340;51.402;0.016;2022-07-21T06:51:17;12.70;;;3.50;;
44774;SDS011;31340;51.402;0.016;2022-07-21T06:53:44;11.35;;;3.30;;
44774;SDS011;31340;51.402;0.016;2022-07-21T06:56:12;9.32;;;3.33;;
44774;SDS011;31340;51.402;0.016;2022-07-21T06:58:39;7.10;;;3.25;;
44774;SDS011;31340;51.402;0.016;2022-07-21T07:01:17;10.57;;;3.78;;
44774;SDS011;31340;51.402;0.016;2022-07-21T07:03:46;13.25;;;4.25;;
44774;SDS011;31340;51.402;0.016;2022-07-21T07:06:15;11.90;;;4.00;;
44774;SDS011;31340;51.402;0.016;2022-07-21T07:08:42;8.95;;;3.92;;
44774;SDS011;31340;51.402;0.016;2022-07-21T07:11:11;9.57;;;3.95;;
44774;SDS011;31340;51.402;0.016;2022-07-21T07:13:39;9.95;;;3.75;;
44774;SDS011;31340;51.402;0.016;2022-07-21T07:16:23;13.35;;;3.92;;
44774;SDS011;31340;51.402;0.016;2022-07-21T07:18:51;8.38;;;4.35;;
44774;SDS011;31340;51.402;0.016;2022-07-21T07:21:18;9.48;;;4.45;;
44774;SDS011;31340;51.402;0.016;2022-07-21T07:23:46;9.35;;;3.97;;
44774;SDS011;31340;51.402;0.016;2022-07-21T07:26:14;12.80;;;4.30;;
44774;SDS011;31340;51.402;0.016;2022-07-21T07:28:41;17.75;;;4.45;;
44774;SDS011;31340;51.402;0.016;2022-07-21T07:31:09;10.68;;;4.20;;
44774;SDS011;31340;51.402;0.016;2022-07-21T07:33:36;13.32;;;3.90;;
44774;SDS011;31340;51.402;0.016;2022-07-21T07:36:04;13.82;;;4.32;;
44774;SDS011;31340;51.402;0.016;2022-07-21T07:38:32;8.13;;;3.70;;
44774;SDS011;31340;51.402;0.016;2022-07-21T07:41:00;10.27;;;4.50;;
44774;SDS011;31340;51.402;0.016;2022-07-21T07:43:28;11.02;;;4.32;;
44774;SDS011;31340;51.402;0.016;2022-07-21T07:45:56;13.00;;;4.00;;
44774;SDS011;31340;51.402;0.016;2022-07-21T07:48:23;12.07;;;4.50;;
44774;SDS011;31340;51.402;0.016;2022-07-21T07:50:51;12.70;;;4.28;;
44774;SDS011;31340;51.402;0.016;2022-07-21T07:53:18;13.90;;;5.22;;
44774;SDS011;31340;51.402;0.016;2022-07-21T07:55:46;11.68;;;4.18;;
44774;SDS011;31340;51.402;0.016;2022-07-21T07:58:13;10.45;;;4.47;;
44774;SDS011;31340;51.402;0.016;2022-07-21T08:00:41;12.45;;;3.65;;
44774;SDS011;31340;51.402;0.016;2022-07-21T08:03:21;13.70;;;4.57;;
44774;SDS011;31340;51.402;0.016;2022-07-21T08:05:50;10.27;;;4.70;;
44774;SDS011;31340;51.402;0.016;2022-07-21T08:08:19;11.80;;;4.70;;
44774;SDS011;31340;51.402;0.016;2022-07-21T08:10:47;10.98;;;4.28;;
44774;SDS011;31340;51.402;0.016;2022-07-21T08:13:16;12.82;;;3.70;;
44774;SDS011;31340;51.402;0.016;2022-07-21T08:15:45;10.25;;;3.92;;
44774;SDS011;31340;51.402;0.016;2022-07-21T08:18:14;9.80;;;3.80;;
44774;SDS011;31340;51.402;0.016;2022-07-21T08:20:43;10.38;;;4.20;;
44774;SDS011;31340;51.402;0.016;2022-07-21T08:23:11;10.07;;;3.80;;
44774;SDS011;31340;51.402;0.016;2022-07-21T08:25:40;10.18;;;4.43;;
44774;SDS011;31340;51.402;0.016;2022-07-21T08:28:08;9.38;;;3.92;;
44774;SDS011;31340;51.402;0.016;2022-07-21T08:30:36;7.55;;;3.72;;
44774;SDS011;31340;51.402;0.016;2022-07-21T08:33:04;12.32;;;4.28;;
44774;SDS011;31340;51.402;0.016;2022-07-21T08:35:32;8.20;;;3.30;;
44774;SDS011;31340;51.402;0.016;2022-07-21T08:38:05;10.95;;;4.10;;
44774;SDS011;31340;51.402;0.016;2022-07-21T08:40:35;12.98;;;4.47;;
44774;SDS011;31340;51.402;0.016;2022-07-21T08:43:04;11.60;;;3.95;;
44774;SDS011;31340;51.402;0.016;2022-07-21T08:45:33;8.32;;;3.65;;
44774;SDS011;31340;51.402;0.016;2022-07-21T08:48:01;10.02;;;3.90;;
44774;SDS011;31340;51.402;0.016;2022-07-21T08:50:30;8.02;;;4.18;;
44774;SDS011;31340;51.402;0.016;2022-07-21T08:53:02;8.85;;;3.95;;
44774;SDS011;31340;51.402;0.016;2022-07-21T08:55:31;13.07;;;3.70;;
44774;SDS011;31340;51.402;0.016;2022-07-21T08:58:00;9.43;;;4.10;;
44774;SDS011;31340;51.402;0.016;2022-07-21T09:00:34;10.57;;;4.15;;
44774;SDS011;31340;51.402;0.016;2022-07-21T09:03:19;8.32;;;3.63;;
44774;SDS011;31340;51.402;0.016;2022-07-21T09:06:08;13.40;;;4.22;;
44774;SDS011;31340;51.402;0.016;2022-07-21T09:08:42;8.32;;;3.60;;
44774;SDS011;31340;51.402;0.016;2022-07-21T09:13:41;10.52;;;4.25;;
44774;SDS011;31340;51.402;0.016;2022-07-21T09:16:10;15.80;;;4.30;;
44774;SDS011;31340;51.402;0.016;2022-07-21T09:18:48;7.10;;;3.58;;
44774;SDS011;31340;51.402;0.016;2022-07-21T09:21:18;11.55;;;4.40;;
44774;SDS011;31340;51.402;0.016;2022-07-21T09:23:46;9.80;;;4.43;;
44774;SDS011;31340;51.402;0.016;2022-07-21T09:26:14;9.85;;;4.00;;
44774;SDS011;31340;51.402;0.016;2022-07-21T09:28:42;10.60;;;3.10;;
44774;SDS011;31340;51.402;0.016;2022-07-21T09:31:10;8.60;;;3.72;;
44774;SDS011;31340;51.402;0.016;2022-07-21T09:33:42;9.23;;;3.13;;
44774;SDS011;31340;51.402;0.016;2022-07-21T09:36:18;11.07;;;4.10;;
44774;SDS011;31340;51.402;0.016;2022-07-21T09:41:16;6.95;;;3.40;;
44774;SDS011;31340;51.402;0.016;2022-07-21T09:43:46;9.52;;;4.38;;
44774;SDS011;31340;51.402;0.016;2022-07-21T09:46:25;7.30;;;3.58;;
44774;SDS011;31340;51.402;0.016;2022-07-21T09:49:00;9.23;;;4.13;;
44774;SDS011;31340;51.402;0.016;2022-07-21T09:51:49;10.63;;;4.43;;
44774;SDS011;31340;51.402;0.016;2022-07-21T09:54:16;6.50;;;3.50;;
44774;SDS011;31340;51.402;0.016;2022-07-21T09:56:44;8.98;;;3.75;;
44774;SDS011;31340;51.402;0.016;2022-07-21T09:59:14;10.82;;;3.88;;
44774;SDS011;31340;51.402;0.016;2022-07-21T10:01:41;11.45;;;3.85;;
44774;SDS011;31340;51.402;0.016;2022-07-21T10:04:09;7.30;;;3.92;;
44774;SDS011;31340;51.402;0.016;2022-07-21T10:06:39;6.65;;;3.95;;
44774;SDS011;31340;51.402;0.016;2022-07-21T10:09:08;7.68;;;3.78;;
44774;SDS011;31340;51.402;0.016;2022-07-21T10:11:39;8.20;;;4.38;;
44774;SDS011;31340;51.402;0.016;2022-07-21T10:14:12;7.55;;;4.32;;
44774;SDS011;31340;51.402;0.016;2022-07-21T10:16:40;9.50;;;4.22;;
44774;SDS011;31340;51.402;0.016;2022-07-21T10:19:28;13.45;;;4.43;;
44774;SDS011;31340;51.402;0.016;2022-07-21T10:22:02;10.70;;;4.50;;
44774;SDS011;31340;51.402;0.016;2022-07-21T10:24:49;5.95;;;3.85;;
44774;SDS011;31340;51.402;0.016;2022-07-21T10:27:16;10.18;;;4.07;;
44774;SDS011;31340;51.402;0.016;2022-07-21T10:29:51;9.70;;;3.78;;
44774;SDS011;31340;51.402;0.016;2022-07-21T10:35:00;8.55;;;4.07;;
44774;SDS011;31340;51.402;0.016;2022-07-21T10:37:48;12.15;;;5.07;;
44774;SDS011;31340;51.402;0.016;2022-07-21T10:45:42;9.60;;;4.80;;
44774;SDS011;31340;51.402;0.016;2022-07-21T10:51:10;8.18;;;4.15;;
44774;SDS011;31340;51.402;0.016;2022-07-21T10:53:39;10.43;;;4.25;;
44774;SDS011;31340;51.402;0.016;2022-07-21T10:56:06;9.32;;;4.13;;
44774;SDS011;31340;51.402;0.016;2022-07-21T10:58:41;6.20;;;4.00;;
44774;SDS011;31340;51.402;0.016;2022-07-21T11:04:05;27.05;;;4.22;;
44774;SDS011;31340;51.402;0.016;2022-07-21T11:06:38;10.23;;;4.13;;
44774;SDS011;31340;51.402;0.016;2022-07-21T11:09:14;7.05;;;3.70;;
44774;SDS011;31340;51.402;0.016;2022-07-21T11:14:15;6.03;;;3.92;;
44774;SDS011;31340;51.402;0.016;2022-07-21T11:19:42;7.70;;;3.92;;
44774;SDS011;31340;51.402;0.016;2022-07-21T11:22:20;7.35;;;3.50;;
44774;SDS011;31340;51.402;0.016;2022-07-21T11:24:50;9.10;;;3.67;;
44774;SDS011;31340;51.402;0.016;2022-07-21T11:27:28;8.15;;;4.20;;
44774;SDS011;31340;51.402;0.016;2022-07-21T11:30:04;6.63;;;3.83;;
44774;SDS011;31340;51.402;0.016;2022-07-21T11:32:37;12.48;;;4.38;;
44774;SDS011;31340;51.402;0.016;2022-07-21T11:35:05;8.00;;;4.55;;
44774;SDS011;31340;51.402;0.016;2022-07-21T11:37:35;8.15;;;4.35;;
44774;SDS011;31340;51.402;0.016;2022-07-21T11:40:27;12.27;;;4.32;;
44774;SDS011;31340;51.402;0.016;2022-07-21T11:42:55;4.95;;;3.75;;
44774;SDS011;31340;51.402;0.016;2022-07-21T11:45:23;9.23;;;4.32;;
44774;SDS011;31340;51.402;0.016;2022-07-21T11:47:55;11.35;;;4.80;;
44774;SDS011;31340;51.402;0.016;2022-07-21T11:50:23;7.13;;;4.45;;
44774;SDS011;31340;51.402;0.016;2022-07-21T11:52:50;6.63;;;4.30;;
44774;SDS011;31340;51.402;0.016;2022-07-21T11:55:18;7.78;;;4.20;;
44774;SDS011;31340;51.402;0.016;2022-07-21T11:57:45;6.53;;;4.30;;
44774;SDS011;31340;51.402;0.016;2022-07-21T12:00:13;10.60;;;4.30;;
44774;SDS011;31340;51.402;0.016;2022-07-21T12:02:47;7.97;;;4.40;;
44774;SDS011;31340;51.402;0.016;2022-07-21T12:05:16;6.78;;;3.95;;
44774;SDS011;31340;51.402;0.016;2022-07-21T12:07:47;8.32;;;4.60;;
44774;SDS011;31340;51.402;0.016;2022-07-21T12:10:24;8.25;;;4.82;;
44774;SDS011;31340;51.402;0.016;2022-07-21T12:15:32;8.73;;;4.63;;
44774;SDS011;31340;51.402;0.016;2022-07-21T12:18:05;9.07;;;4.82;;
44774;SDS011;31340;51.402;0.016;2022-07-21T12:20:36;5.93;;;4.03;;
44774;SDS011;31340;51.402;0.016;2022-07-21T12:25:49;9.38;;;4.75;;
44774;SDS011;31340;51.402;0.016;2022-07-21T12:28:41;8.35;;;4.78;;
44774;SDS011;31340;51.402;0.016;2022-07-21T12:31:14;7.85;;;4.03;;
44774;SDS011;31340;51.402;0.016;2022-07-21T12:33:48;8.02;;;4.28;;
44774;SDS011;31340;51.402;0.016;2022-07-21T12:36:40;8.80;;;4.55;;
44774;SDS011;31340;51.402;0.016;2022-07-21T12:39:19;11.40;;;6.43;;
44774;SDS011;31340;51.402;0.016;2022-07-21T12:42:08;11.15;;;5.20;;
44774;SDS011;31340;51.402;0.016;2022-07-21T12:44:59;12.18;;;4.85;;
44774;SDS011;31340;51.402;0.016;2022-07-21T12:47:27;13.90;;;4.50;;
44774;SDS011;31340;51.402;0.016;2022-07-21T12:52:40;8.55;;;4.70;;
44774;SDS011;31340;51.402;0.016;2022-07-21T12:55:08;9.68;;;4.80;;
44774;SDS011;31340;51.402;0.016;2022-07-21T12:57:36;9.88;;;4.75;;
44774;SDS011;31340;51.402;0.016;2022-07-21T13:00:04;8.55;;;4.88;;
44774;SDS011;31340;51.402;0.016;2022-07-21T13:02:45;8.85;;;5.20;;
44774;SDS011;31340;51.402;0.016;2022-07-21T13:05:17;7.25;;;4.78;;
44774;SDS011;31340;51.402;0.016;2022-07-21T13:07:45;8.98;;;4.85;;
44774;SDS011;31340;51.402;0.016;2022-07-21T13:10:13;12.35;;;4.97;;
44774;SDS011;31340;51.402;0.016;2022-07-21T13:12:42;6.47;;;4.40;;
44774;SDS011;31340;51.402;0.016;2022-07-21T13:15:10;8.75;;;4.60;;
44774;SDS011;31340;51.402;0.016;2022-07-21T13:17:39;7.35;;;5.15;;
44774;SDS011;31340;51.402;0.016;2022-07-21T13:20:07;9.45;;;5.13;;
44774;SDS011;31340;51.402;0.016;2022-07-21T13:22:36;6.25;;;4.22;;
44774;SDS011;31340;51.402;0.016;2022-07-21T13:25:03;10.15;;;5.07;;
44774;SDS011;31340;51.402;0.016;2022-07-21T13:27:32;7.80;;;4.35;;
44774;SDS011;31340;51.402;0.016;2022-07-21T13:30:02;8.32;;;4.85;;
44774;SDS011;31340;51.402;0.016;2022-07-21T13:32:34;7.30;;;5.20;;
44774;SDS011;31340;51.402;0.016;2022-07-21T13:35:03;9.00;;;4.50;;
44774;SDS011;31340;51.402;0.016;2022-07-21T13:37:51;9.13;;;4.60;;
44774;SDS011;31340;51.402;0.016;2022-07-21T13:40:20;9.32;;;4.82;;
44774;SDS011;31340;51.402;0.016;2022-07-21T13:43:09;9.23;;;4.65;;
44774;SDS011;31340;51.402;0.016;2022-07-21T13:45:59;8.17;;;4.50;;
44774;SDS011;31340;51.402;0.016;2022-07-21T13:48:26;7.55;;;4.38;;
44774;SDS011;31340;51.402;0.016;2022-07-21T13:50:54;8.95;;;4.93;;
44774;SDS011;31340;51.402;0.016;2022-07-21T13:53:21;8.63;;;4.40;;
44774;SDS011;31340;51.402;0.016;2022-07-21T13:55:49;10.25;;;4.32;;
44774;SDS011;31340;51.402;0.016;2022-07-21T13:58:20;10.68;;;4.30;;
44774;SDS011;31340;51.402;0.016;2022-07-21T14:00:48;7.07;;;4.07;;
44774;SDS011;31340;51.402;0.016;2022-07-21T14:03:18;8.32;;;4.03;;
44774;SDS011;31340;51.402;0.016;2022-07-21T14:05:45;8.55;;;4.20;;
44774;SDS011;31340;51.402;0.016;2022-07-21T14:08:13;7.72;;;4.28;;
44774;SDS011;31340;51.402;0.016;2022-07-21T14:10:41;9.40;;;4.30;;
44774;SDS011;31340;51.402;0.016;2022-07-21T14:13:08;8.18;;;4.60;;
44774;SDS011;31340;51.402;0.016;2022-07-21T14:15:36;12.10;;;4.32;;
44774;SDS011;31340;51.402;0.016;2022-07-21T14:18:04;11.75;;;4.40;;
44774;SDS011;31340;51.402;0.016;2022-07-21T14:20:31;6.25;;;3.78;;
44774;SDS011;31340;51.402;0.016;2022-07-21T14:22:59;8.02;;;4.43;;
44774;SDS011;31340;51.402;0.016;2022-07-21T14:25:27;8.93;;;4.55;;
44774;SDS011;31340;51.402;0.016;2022-07-21T14:27:56;7.72;;;4.00;;
44774;SDS011;31340;51.402;0.016;2022-07-21T14:30:25;7.18;;;4.10;;
44774;SDS011;31340;51.402;0.016;2022-07-21T14:32:55;9.27;;;4.38;;
44774;SDS011;31340;51.402;0.016;2022-07-21T14:35:24;6.68;;;3.97;;
44774;SDS011;31340;51.402;0.016;2022-07-21T14:37:54;6.35;;;4.35;;
44774;SDS011;31340;51.402;0.016;2022-07-21T14:40:22;7.95;;;4.47;;
44774;SDS011;31340;51.402;0.016;2022-07-21T14:42:50;8.50;;;4.35;;
44774;SDS011;31340;51.402;0.016;2022-07-21T14:45:19;12.93;;;3.90;;
44774;SDS011;31340;51.402;0.016;2022-07-21T14:47:50;15.90;;;3.53;;
44774;SDS011;31340;51.402;0.016;2022-07-21T14:50:19;6.70;;;3.53;;
44774;SDS011;31340;51.402;0.016;2022-07-21T14:52:53;11.57;;;3.83;;
44774;SDS011;31340;51.402;0.016;2022-07-21T14:55:22;7.68;;;3.88;;
44774;SDS011;31340;51.402;0.016;2022-07-21T14:57:52;7.95;;;3.65;;
44774;SDS011;31340;51.402;0.016;2022-07-21T15:00:20;7.63;;;3.33;;
44774;SDS011;31340;51.402;0.016;2022-07-21T15:02:52;7.55;;;3.38;;
44774;SDS011;31340;51.402;0.016;2022-07-21T15:05:21;7.43;;;3.22;;
44774;SDS011;31340;51.402;0.016;2022-07-21T15:07:49;9.30;;;3.72;;
44774;SDS011;31340;51.402;0.016;2022-07-21T15:10:17;7.07;;;3.55;;
44774;SDS011;31340;51.402;0.016;2022-07-21T15:12:45;5.30;;;2.88;;
44774;SDS011;31340;51.402;0.016;2022-07-21T15:15:12;15.75;;;4.05;;
44774;SDS011;31340;51.402;0.016;2022-07-21T15:17:41;6.55;;;3.35;;
44774;SDS011;31340;51.402;0.016;2022-07-21T15:20:09;13.48;;;3.47;;
44774;SDS011;31340;51.402;0.016;2022-07-21T15:22:40;6.18;;;2.80;;
44774;SDS011;31340;51.402;0.016;2022-07-21T15:25:09;9.70;;;3.20;;
44774;SDS011;31340;51.402;0.016;2022-07-21T15:27:38;7.40;;;2.70;;
44774;SDS011;31340;51.402;0.016;2022-07-21T15:30:08;7.55;;;3.38;;
44774;SDS011;31340;51.402;0.016;2022-07-21T15:32:37;8.18;;;3.10;;
44774;SDS011;31340;51.402;0.016;2022-07-21T15:35:06;10.75;;;3.60;;